Time,TemperatureF,DewpointF,PressureIn,WindDirection,WindDirectionDegrees,WindSpeedMPH,WindSpeedGustMPH,Humidity,HourlyPrecipIn,Conditions,Clouds,dailyrainin,SoftwareType,DateUTC
2017-03-29 00:01:00,51.1,44.8,30.14,NE,35,3.6,4.9,79,0.00,,---,0.00,VWS V15.00,2017-03-29 05:01:00,
2017-03-29 00:06:00,50.9,44.3,30.14,NNE,30,2.2,3.6,78,0.00,,---,0.00,VWS V15.00,2017-03-29 05:06:00,
2017-03-29 00:11:00,50.9,44.3,30.14,NNE,30,0.0,0.0,78,0.00,,---,0.00,VWS V15.00,2017-03-29 05:11:00,
2017-03-29 00:16:00,50.9,44.3,30.11,NNE,32,2.7,4.9,78,0.00,,---,0.00,VWS V15.00,2017-03-29 05:16:00,
2017-03-29 00:21:00,50.7,44.1,30.11,NNE,33,0.0,2.7,78,0.00,,---,0.00,VWS V15.00,2017-03-29 05:21:00,
2017-03-29 00:26:00,50.7,44.1,30.11,NE,47,2.2,4.0,78,0.00,,---,0.00,VWS V15.00,2017-03-29 05:26:00,
2017-03-29 00:31:00,50.5,44.0,30.14,NNE,32,5.4,5.4,78,0.00,,---,0.00,VWS V15.00,2017-03-29 05:31:00,
2017-03-29 00:37:00,50.5,44.0,30.14,NE,53,0.0,3.1,78,0.00,,---,0.00,VWS V15.00,2017-03-29 05:37:00,
2017-03-29 00:42:00,50.5,44.0,30.14,NNE,33,0.0,3.1,78,0.00,,---,0.00,VWS V15.00,2017-03-29 05:42:00,
2017-03-29 00:47:00,50.5,44.0,30.11,NNE,29,3.1,4.9,78,0.00,,---,0.00,VWS V15.00,2017-03-29 05:47:00,
2017-03-29 00:52:00,50.4,43.8,30.11,NNE,19,2.7,3.1,78,0.00,,---,0.00,VWS V15.00,2017-03-29 05:52:00,
2017-03-29 00:57:00,50.4,43.4,30.11,ENE,61,4.0,7.6,77,0.00,,---,0.00,VWS V15.00,2017-03-29 05:57:00,
2017-03-29 01:02:00,50.4,43.4,30.11,NNE,28,3.6,5.8,77,0.00,,---,0.00,VWS V15.00,2017-03-29 06:02:00,
2017-03-29 01:07:00,50.2,43.3,30.11,NE,47,0.0,2.7,77,0.00,,---,0.00,VWS V15.00,2017-03-29 06:07:00,
2017-03-29 01:12:00,50.2,43.3,30.11,NNE,22,0.0,0.0,77,0.00,,---,0.00,VWS V15.00,2017-03-29 06:12:00,
2017-03-29 01:17:00,50.2,43.3,30.11,ENE,59,3.1,3.6,77,0.00,,---,0.00,VWS V15.00,2017-03-29 06:17:00,
2017-03-29 01:22:00,50.2,43.3,30.11,NE,51,3.6,6.3,77,0.00,,---,0.00,VWS V15.00,2017-03-29 06:22:00,
2017-03-29 01:27:00,50.2,43.3,30.11,ENE,74,2.7,5.8,77,0.00,,---,0.00,VWS V15.00,2017-03-29 06:27:00,
2017-03-29 01:32:00,50.2,43.3,30.11,NNE,28,5.4,5.4,77,0.00,,---,0.00,VWS V15.00,2017-03-29 06:32:00,
2017-03-29 01:37:00,50.0,43.1,30.11,NE,55,3.6,4.9,77,0.00,,---,0.00,VWS V15.00,2017-03-29 06:37:00,
2017-03-29 01:42:00,50.0,43.1,30.11,NE,39,4.9,5.8,77,0.00,,---,0.00,VWS V15.00,2017-03-29 06:42:00,
2017-03-29 01:47:00,49.8,42.9,30.11,ENE,57,3.1,5.8,77,0.00,,---,0.00,VWS V15.00,2017-03-29 06:47:00,
2017-03-29 01:52:00,49.8,42.9,30.11,ESE,104,6.3,6.3,77,0.00,,---,0.00,VWS V15.00,2017-03-29 06:52:00,
2017-03-29 01:57:00,49.6,42.7,30.11,NE,54,3.6,4.9,77,0.00,,---,0.00,VWS V15.00,2017-03-29 06:57:00,
2017-03-29 02:02:00,49.6,42.7,30.11,NNE,12,5.8,5.8,77,0.00,,---,0.00,VWS V15.00,2017-03-29 07:02:00,
2017-03-29 02:07:00,49.5,42.6,30.11,NE,46,3.1,5.8,77,0.00,,---,0.00,VWS V15.00,2017-03-29 07:07:00,
2017-03-29 02:12:00,49.5,42.6,30.11,NNE,32,3.1,5.8,77,0.00,,---,0.00,VWS V15.00,2017-03-29 07:12:00,
2017-03-29 02:17:00,49.3,42.4,30.11,ENE,68,3.6,3.6,77,0.00,,---,0.00,VWS V15.00,2017-03-29 07:17:00,
2017-03-29 02:22:00,49.3,42.7,30.11,ENE,76,3.6,4.0,78,0.00,,---,0.00,VWS V15.00,2017-03-29 07:22:00,
2017-03-29 02:27:00,49.1,42.5,30.11,NE,36,2.2,5.8,78,0.00,,---,0.00,VWS V15.00,2017-03-29 07:27:00,
2017-03-29 02:32:00,48.9,42.4,30.11,NE,54,3.6,6.3,78,0.00,,---,0.00,VWS V15.00,2017-03-29 07:32:00,